Wetterdaten: Woche 28.05.18 - 03.06.18 (KW22)
Datum Zeit Temp. A. Pool Temp. Feuchte A. Luftdruck Regen Wind Richtung Sonnenschein ET UV Solar Taupunkt Windchill Windben Empfang
28.05.2018 00:00 17,5 C 22,8 C 87 % 1016,1 hPa 0,0 l/m 1,0 km/h (0 Bft) O 0,00 h 0,000 mm 0,0 UV-I 0 W/m 15,3 C 17,5 C 1,6 km/h (1 Bft) 98,13 %
28.05.2018 01:00 16,6 C 22,8 C 90 % 1015,7 hPa 0,0 l/m 0,7 km/h (0 Bft) O-NO 0,00 h 0,000 mm 0,0 UV-I 0 W/m 14,9 C 16,6 C 1,4 km/h (1 Bft) 98,23 %
28.05.2018 02:00 16,2 C 22,8 C 91 % 1015,5 hPa 0,0 l/m 0,2 km/h (0 Bft) O-NO 0,00 h 0,000 mm 0,0 UV-I 0 W/m 14,7 C 16,2 C 0,3 km/h (0 Bft) 98,45 %
28.05.2018 03:00 15,6 C 22,4 C 92 % 1015,2 hPa 0,0 l/m 1,8 km/h (1 Bft) O-NO 0,00 h 0,000 mm 0,0 UV-I 0 W/m 14,3 C 15,6 C 2,7 km/h (1 Bft) 96,37 %
28.05.2018 04:00 14,5 C 22,2 C 94 % 1015,1 hPa 0,0 l/m 1,2 km/h (1 Bft) S 0,00 h 0,000 mm 0,0 UV-I 0 W/m 13,5 C 14,5 C 1,8 km/h (1 Bft) 98,74 %
28.05.2018 05:00 14,1 C 22,2 C 95 % 1015,5 hPa 0,0 l/m 1,9 km/h (1 Bft) S-SW 0,02 h 0,000 mm 0,0 UV-I 12 W/m 13,2 C 14,1 C 2,9 km/h (1 Bft) 98,39 %
28.05.2018 06:00 14,9 C 22,2 C 92 % 1015,9 hPa 0,0 l/m 1,7 km/h (1 Bft) S 0,72 h 0,000 mm 0,0 UV-I 130 W/m 13,5 C 14,9 C 2,7 km/h (1 Bft) 96,64 %
28.05.2018 07:00 17,7 C 22,2 C 85 % 1015,9 hPa 0,0 l/m 3,7 km/h (1 Bft) O 0,95 h 0,076 mm 0,5 UV-I 294 W/m 15,1 C 17,7 C 5,5 km/h (1 Bft) 98,15 %
28.05.2018 08:00 19,7 C 22,2 C 78 % 1016,1 hPa 0,0 l/m 5,6 km/h (1 Bft) O-NO 1,00 h 0,178 mm 0,9 UV-I 434 W/m 15,8 C 19,6 C 8,3 km/h (2 Bft) 99,10 %
28.05.2018 09:00 21,3 C 22,6 C 71 % 1016,1 hPa 0,0 l/m 5,0 km/h (1 Bft) O-NO 1,00 h 0,254 mm 1,6 UV-I 559 W/m 15,8 C 21,2 C 7,5 km/h (2 Bft) 97,28 %
28.05.2018 10:00 23,0 C 22,8 C 62 % 1015,9 hPa 0,0 l/m 5,9 km/h (2 Bft) O-NO 1,00 h 0,356 mm 2,4 UV-I 675 W/m 15,4 C 22,8 C 9,1 km/h (2 Bft) 95,84 %
28.05.2018 11:00 24,9 C 22,8 C 58 % 1015,6 hPa 0,0 l/m 6,6 km/h (2 Bft) O-NO 1,00 h 0,431 mm 3,1 UV-I 754 W/m 16,0 C 24,6 C 9,8 km/h (2 Bft) 97,82 %
28.05.2018 12:00 26,5 C 23,3 C 55 % 1015,2 hPa 0,0 l/m 7,0 km/h (2 Bft) O-NO 1,00 h 0,483 mm 3,5 UV-I 817 W/m 16,7 C 26,2 C 10,2 km/h (2 Bft) 98,95 %
28.05.2018 13:00 27,9 C 23,8 C 50 % 1014,7 hPa 0,0 l/m 7,0 km/h (2 Bft) O-NO 1,00 h 0,559 mm 3,5 UV-I 816 W/m 16,5 C 27,7 C 10,8 km/h (2 Bft) 96,53 %
28.05.2018 14:00 29,0 C 24,0 C 46 % 1014,0 hPa 0,0 l/m 10,4 km/h (2 Bft) O-NO 0,97 h 0,584 mm 3,0 UV-I 758 W/m 16,1 C 28,5 C 14,9 km/h (3 Bft) 98,56 %
28.05.2018 15:00 29,1 C 24,4 C 47 % 1013,4 hPa 0,0 l/m 11,4 km/h (2 Bft) NO 0,92 h 0,584 mm 2,2 UV-I 638 W/m 16,5 C 28,5 C 16,3 km/h (3 Bft) 98,63 %
28.05.2018 16:00 29,1 C 24,4 C 46 % 1013,1 hPa 0,0 l/m 15,7 km/h (3 Bft) NO 1,00 h 0,508 mm 1,6 UV-I 545 W/m 16,3 C 28,3 C 20,8 km/h (4 Bft) 96,93 %
28.05.2018 17:00 29,3 C 24,9 C 45 % 1012,4 hPa 0,0 l/m 15,0 km/h (3 Bft) O-NO 1,00 h 0,508 mm 0,9 UV-I 407 W/m 16,1 C 28,5 C 20,7 km/h (4 Bft) 98,13 %
28.05.2018 18:00 28,4 C 24,8 C 49 % 1012,3 hPa 0,0 l/m 20,1 km/h (4 Bft) O-NO 1,00 h 0,407 mm 0,5 UV-I 259 W/m 16,5 C 27,1 C 27,7 km/h (4 Bft) 98,66 %
28.05.2018 19:00 26,7 C 24,4 C 55 % 1012,5 hPa 0,0 l/m 19,6 km/h (3 Bft) O-NO 0,50 h 0,355 mm 0,0 UV-I 114 W/m 16,8 C 24,9 C 26,9 km/h (4 Bft) 99,02 %
28.05.2018 20:00 24,9 C 24,4 C 60 % 1012,7 hPa 0,0 l/m 17,8 km/h (3 Bft) O-NO 0,07 h 0,229 mm 0,0 UV-I 15 W/m 16,6 C 22,8 C 24,1 km/h (4 Bft) 96,45 %
28.05.2018 21:00 23,2 C 24,2 C 68 % 1013,2 hPa 0,0 l/m 12,8 km/h (3 Bft) O 0,00 h 0,127 mm 0,0 UV-I 4 W/m 17,1 C 21,6 C 17,6 km/h (3 Bft) 98,02 %
28.05.2018 22:00 21,7 C 23,9 C 76 % 1013,3 hPa 0,0 l/m 8,5 km/h (2 Bft) O-NO 0,00 h 0,076 mm 0,0 UV-I 0 W/m 17,1 C 20,9 C 12,2 km/h (2 Bft) 98,44 %
28.05.2018 23:00 20,8 C 23,9 C 78 % 1013,3 hPa 0,0 l/m 8,5 km/h (2 Bft) O 0,00 h 0,025 mm 0,0 UV-I 0 W/m 16,8 C 20,1 C 11,8 km/h (2 Bft) 98,19 %
29.05.2018 00:00 20,4 C 23,9 C 77 % 1013,3 hPa 0,0 l/m 6,7 km/h (2 Bft) O 0,00 h 0,000 mm 0,0 UV-I 0 W/m 16,2 C 20,1 C 9,6 km/h (2 Bft) 96,85 %
29.05.2018 01:00 19,6 C 23,9 C 78 % 1012,9 hPa 0,0 l/m 7,2 km/h (2 Bft) O 0,00 h 0,025 mm 0,0 UV-I 0 W/m 15,6 C 19,1 C 10,0 km/h (2 Bft) 98,03 %
29.05.2018 02:00 18,7 C 23,5 C 81 % 1012,9 hPa 0,0 l/m 8,9 km/h (2 Bft) O 0,00 h 0,026 mm 0,0 UV-I 0 W/m 15,3 C 17,7 C 11,8 km/h (2 Bft) 98,52 %
29.05.2018 03:00 18,3 C 23,3 C 83 % 1012,6 hPa 0,0 l/m 6,1 km/h (2 Bft) O-NO 0,00 h 0,025 mm 0,0 UV-I 0 W/m 15,3 C 18,0 C 7,9 km/h (2 Bft) 98,19 %
29.05.2018 04:00 17,9 C 23,3 C 84 % 1012,3 hPa 0,0 l/m 6,9 km/h (2 Bft) O-NO 0,00 h 0,026 mm 0,0 UV-I 5 W/m 15,1 C 17,3 C 9,4 km/h (2 Bft) 96,11 %
29.05.2018 05:00 17,6 C 23,3 C 83 % 1012,2 hPa 0,0 l/m 6,8 km/h (2 Bft) O-NO 0,58 h 0,025 mm 0,0 UV-I 28 W/m 14,8 C 17,2 C 9,7 km/h (2 Bft) 97,61 %
29.05.2018 06:00 18,0 C 23,3 C 84 % 1012,2 hPa 0,0 l/m 5,9 km/h (2 Bft) O 1,00 h 0,025 mm 0,0 UV-I 137 W/m 15,2 C 17,8 C 8,5 km/h (2 Bft) 98,46 %
29.05.2018 07:00 19,9 C 23,3 C 77 % 1012,2 hPa 0,0 l/m 7,6 km/h (2 Bft) O-NO 1,00 h 0,102 mm 0,5 UV-I 278 W/m 15,8 C 19,3 C 11,2 km/h (2 Bft) 97,26 %
29.05.2018 08:00 21,9 C 23,3 C 69 % 1012,2 hPa 0,0 l/m 9,2 km/h (2 Bft) O 1,00 h 0,178 mm 1,0 UV-I 436 W/m 16,0 C 21,0 C 13,0 km/h (3 Bft) 97,01 %
29.05.2018 09:00 24,1 C 23,3 C 62 % 1012,0 hPa 0,0 l/m 7,7 km/h (2 Bft) O-NO 1,00 h 0,305 mm 2,2 UV-I 611 W/m 16,4 C 23,7 C 11,1 km/h (2 Bft) 97,77 %
29.05.2018 10:00 26,3 C 23,4 C 55 % 1011,8 hPa 0,0 l/m 8,6 km/h (2 Bft) O-NO 1,00 h 0,431 mm 3,6 UV-I 716 W/m 16,4 C 25,8 C 12,4 km/h (3 Bft) 98,79 %
29.05.2018 11:00 28,0 C 23,9 C 47 % 1011,5 hPa 0,0 l/m 9,7 km/h (2 Bft) O-NO 1,00 h 0,508 mm 4,6 UV-I 817 W/m 15,5 C 27,6 C 13,7 km/h (3 Bft) 97,24 %
29.05.2018 12:00 29,5 C 24,0 C 39 % 1011,0 hPa 0,0 l/m 8,4 km/h (2 Bft) O 1,00 h 0,610 mm 5,3 UV-I 897 W/m 14,2 C 29,3 C 12,6 km/h (3 Bft) 97,40 %
29.05.2018 13:00 30,1 C 24,4 C 37 % 1010,4 hPa 0,0 l/m 8,6 km/h (2 Bft) O-NO 0,93 h 0,686 mm 4,9 UV-I 822 W/m 13,9 C 29,9 C 12,8 km/h (3 Bft) 97,96 %
29.05.2018 14:00 30,7 C 24,8 C 33 % 1010,0 hPa 0,0 l/m 10,2 km/h (2 Bft) SO 1,00 h 0,660 mm 4,6 UV-I 846 W/m 12,6 C 30,4 C 14,7 km/h (3 Bft) 97,35 %
29.05.2018 15:00 30,6 C 25,0 C 35 % 1009,4 hPa 0,0 l/m 6,9 km/h (2 Bft) O-NO 0,93 h 0,686 mm 3,4 UV-I 706 W/m 13,2 C 30,5 C 10,3 km/h (2 Bft) 97,82 %
29.05.2018 16:00 27,8 C 25,0 C 42 % 1009,0 hPa 0,0 l/m 11,8 km/h (2 Bft) S 0,00 h 0,559 mm 1,1 UV-I 196 W/m 13,5 C 27,0 C 17,6 km/h (3 Bft) 98,59 %
29.05.2018 17:00 27,7 C 25,0 C 43 % 1008,7 hPa 0,0 l/m 7,4 km/h (2 Bft) SO 0,15 h 0,254 mm 0,9 UV-I 194 W/m 14,0 C 27,5 C 11,0 km/h (2 Bft) 97,99 %
29.05.2018 18:00 26,7 C 25,0 C 45 % 1008,7 hPa 0,0 l/m 7,0 km/h (2 Bft) O-SO 0,00 h 0,203 mm 0,5 UV-I 89 W/m 13,9 C 26,5 C 10,4 km/h (2 Bft) 97,01 %
29.05.2018 19:00 25,5 C 25,0 C 51 % 1008,8 hPa 0,0 l/m 7,4 km/h (2 Bft) O-SO 0,00 h 0,127 mm 0,0 UV-I 52 W/m 14,5 C 25,1 C 10,2 km/h (2 Bft) 98,21 %
29.05.2018 20:00 23,9 C 25,0 C 56 % 1008,9 hPa 0,0 l/m 9,2 km/h (2 Bft) O 0,38 h 0,102 mm 0,0 UV-I 26 W/m 14,7 C 23,2 C 12,0 km/h (2 Bft) 99,36 %
29.05.2018 21:00 22,5 C 24,5 C 59 % 1009,6 hPa 0,0 l/m 6,3 km/h (2 Bft) O-SO 0,00 h 0,076 mm 0,0 UV-I 4 W/m 14,0 C 22,3 C 9,1 km/h (2 Bft) 97,70 %
29.05.2018 22:00 21,4 C 24,4 C 60 % 1010,0 hPa 0,0 l/m 6,8 km/h (2 Bft) O-SO 0,00 h 0,051 mm 0,0 UV-I 0 W/m 13,4 C 21,0 C 9,8 km/h (2 Bft) 97,37 %
29.05.2018 23:00 20,3 C 24,4 C 63 % 1009,9 hPa 0,0 l/m 5,5 km/h (1 Bft) O-NO 0,00 h 0,050 mm 0,0 UV-I 0 W/m 13,0 C 20,2 C 8,4 km/h (2 Bft) 97,00 %
30.05.2018 00:00 18,4 C 24,3 C 71 % 1010,0 hPa 0,0 l/m 1,2 km/h (1 Bft) O-NO 0,00 h 0,000 mm 0,0 UV-I 0 W/m 13,0 C 18,4 C 1,7 km/h (1 Bft) 99,38 %
30.05.2018 01:00 18,0 C 23,9 C 73 % 1010,0 hPa 0,0 l/m 2,0 km/h (1 Bft) O-NO 0,00 h 0,000 mm 0,0 UV-I 0 W/m 13,1 C 18,0 C 2,9 km/h (1 Bft) 96,97 %
30.05.2018 02:00 17,6 C 23,9 C 76 % 1010,7 hPa 0,0 l/m 4,1 km/h (1 Bft) S-SW 0,00 h 0,025 mm 0,0 UV-I 0 W/m 13,4 C 17,6 C 5,6 km/h (1 Bft) 97,73 %
30.05.2018 03:00 18,1 C 23,9 C 79 % 1011,3 hPa 0,0 l/m 10,2 km/h (2 Bft) SW 0,00 h 0,026 mm 0,0 UV-I 0 W/m 14,5 C 16,6 C 14,3 km/h (3 Bft) 97,99 %
30.05.2018 04:00 18,7 C 23,9 C 81 % 1011,4 hPa 0,0 l/m 14,2 km/h (3 Bft) W-SW 0,00 h 0,025 mm 0,0 UV-I 0 W/m 15,4 C 15,9 C 20,0 km/h (4 Bft) 99,31 %
30.05.2018 05:00 18,7 C 23,3 C 82 % 1012,1 hPa 0,0 l/m 14,3 km/h (3 Bft) W-SW 0,00 h 0,051 mm 0,0 UV-I 11 W/m 15,5 C 15,9 C 20,0 km/h (4 Bft) 96,83 %
30.05.2018 06:00 18,6 C 23,3 C 82 % 1012,4 hPa 0,0 l/m 12,5 km/h (3 Bft) W 0,18 h 0,051 mm 0,0 UV-I 76 W/m 15,5 C 16,3 C 16,9 km/h (3 Bft) 97,55 %
30.05.2018 07:00 20,2 C 23,3 C 77 % 1012,9 hPa 0,0 l/m 8,4 km/h (2 Bft) W 0,87 h 0,076 mm 0,7 UV-I 305 W/m 15,9 C 19,3 C 12,6 km/h (3 Bft) 97,78 %
30.05.2018 08:00 21,1 C 23,4 C 73 % 1013,3 hPa 0,0 l/m 7,2 km/h (2 Bft) W 0,88 h 0,203 mm 1,2 UV-I 377 W/m 16,2 C 20,6 C 10,8 km/h (2 Bft) 99,11 %
30.05.2018 09:00 21,9 C 23,8 C 72 % 1013,6 hPa 0,0 l/m 5,5 km/h (1 Bft) W 0,85 h 0,254 mm 2,2 UV-I 469 W/m 16,7 C 21,7 C 8,7 km/h (2 Bft) 96,57 %
30.05.2018 10:00 23,3 C 23,9 C 67 % 1013,9 hPa 0,0 l/m 5,6 km/h (1 Bft) W-NW 0,60 h 0,305 mm 3,1 UV-I 536 W/m 16,9 C 23,1 C 9,2 km/h (2 Bft) 98,23 %
30.05.2018 11:00 24,0 C 23,9 C 61 % 1013,9 hPa 0,0 l/m 8,3 km/h (2 Bft) W 0,87 h 0,381 mm 4,0 UV-I 697 W/m 16,1 C 23,4 C 12,7 km/h (3 Bft) 98,34 %
30.05.2018 12:00 23,9 C 24,2 C 60 % 1013,9 hPa 0,0 l/m 8,2 km/h (2 Bft) W 0,92 h 0,483 mm 4,0 UV-I 621 W/m 15,8 C 23,3 C 12,5 km/h (3 Bft) 99,70 %
30.05.2018 13:00 25,1 C 24,4 C 57 % 1013,4 hPa 0,0 l/m 5,2 km/h (1 Bft) W-NW 1,00 h 0,431 mm 5,1 UV-I 836 W/m 15,8 C 25,0 C 8,1 km/h (2 Bft) 96,52 %
30.05.2018 14:00 26,3 C 24,9 C 57 % 1013,1 hPa 0,0 l/m 7,7 km/h (2 Bft) NO 0,93 h 0,559 mm 4,7 UV-I 807 W/m 17,1 C 25,9 C 11,4 km/h (2 Bft) 98,57 %
30.05.2018 15:00 27,0 C 25,0 C 55 % 1012,6 hPa 0,0 l/m 7,2 km/h (2 Bft) NO 1,00 h 0,559 mm 3,7 UV-I 734 W/m 17,2 C 26,8 C 10,8 km/h (2 Bft) 97,99 %
30.05.2018 16:00 27,2 C 25,4 C 53 % 1012,1 hPa 0,0 l/m 12,6 km/h (3 Bft) O-NO 0,77 h 0,508 mm 2,0 UV-I 518 W/m 16,8 C 26,3 C 17,6 km/h (3 Bft) 98,69 %
30.05.2018 17:00 27,0 C 25,6 C 52 % 1011,6 hPa 0,0 l/m 16,3 km/h (3 Bft) O-NO 1,00 h 0,432 mm 1,1 UV-I 480 W/m 16,4 C 25,6 C 21,5 km/h (4 Bft) 96,54 %
30.05.2018 18:00 26,4 C 25,6 C 53 % 1011,3 hPa 0,0 l/m 15,9 km/h (3 Bft) O 1,00 h 0,432 mm 0,6 UV-I 292 W/m 16,0 C 24,9 C 21,1 km/h (4 Bft) 99,06 %
30.05.2018 19:00 25,1 C 25,1 C 59 % 1011,4 hPa 0,0 l/m 13,8 km/h (3 Bft) O 1,00 h 0,304 mm 0,0 UV-I 134 W/m 16,5 C 23,7 C 18,9 km/h (3 Bft) 97,94 %
30.05.2018 20:00 23,2 C 25,0 C 66 % 1011,5 hPa 0,0 l/m 9,0 km/h (2 Bft) O-NO 0,70 h 0,178 mm 0,0 UV-I 33 W/m 16,5 C 22,5 C 13,0 km/h (3 Bft) 98,41 %
30.05.2018 21:00 22,0 C 25,0 C 71 % 1011,5 hPa 0,0 l/m 11,5 km/h (2 Bft) O-NO 0,00 h 0,076 mm 0,0 UV-I 5 W/m 16,6 C 20,5 C 15,5 km/h (3 Bft) 95,62 %
30.05.2018 22:00 21,1 C 25,0 C 74 % 1011,4 hPa 0,0 l/m 9,6 km/h (2 Bft) O 0,00 h 0,051 mm 0,0 UV-I 0 W/m 16,2 C 20,0 C 13,6 km/h (3 Bft) 99,38 %
30.05.2018 23:00 19,4 C 24,6 C 81 % 1011,5 hPa 0,0 l/m 5,8 km/h (2 Bft) O-NO 0,00 h 0,051 mm 0,0 UV-I 0 W/m 16,0 C 19,3 C 8,5 km/h (2 Bft) 98,17 %
31.05.2018 00:00 18,4 C 24,4 C 83 % 1011,5 hPa 0,0 l/m 5,9 km/h (2 Bft) O-NO 0,00 h 0,000 mm 0,0 UV-I 0 W/m 15,4 C 18,3 C 7,9 km/h (2 Bft) 98,64 %
31.05.2018 01:00 18,1 C 24,4 C 83 % 1011,5 hPa 0,0 l/m 4,6 km/h (1 Bft) O 0,00 h 0,025 mm 0,0 UV-I 0 W/m 15,1 C 18,1 C 6,3 km/h (2 Bft) 96,11 %
31.05.2018 02:00 17,4 C 24,4 C 85 % 1011,2 hPa 0,0 l/m 3,7 km/h (1 Bft) O-SO 0,00 h 0,026 mm 0,0 UV-I 0 W/m 14,8 C 17,4 C 5,2 km/h (1 Bft) 99,23 %
31.05.2018 03:00 16,5 C 23,9 C 87 % 1011,3 hPa 0,0 l/m 1,4 km/h (1 Bft) SW 0,00 h 0,000 mm 0,0 UV-I 0 W/m 14,3 C 16,5 C 2,1 km/h (1 Bft) 97,52 %
31.05.2018 04:00 15,3 C 23,9 C 90 % 1011,2 hPa 0,0 l/m 0,2 km/h (0 Bft) SW 0,00 h 0,000 mm 0,0 UV-I 5 W/m 13,7 C 15,3 C 0,4 km/h (0 Bft) 97,67 %
31.05.2018 05:00 14,8 C 23,9 C 92 % 1011,8 hPa 0,0 l/m 1,6 km/h (1 Bft) SW 0,62 h 0,000 mm 0,0 UV-I 34 W/m 13,4 C 14,8 C 2,4 km/h (1 Bft) 96,98 %
31.05.2018 06:00 15,9 C 23,9 C 90 % 1012,1 hPa 0,0 l/m 2,0 km/h (1 Bft) S-SW 1,00 h 0,025 mm 0,0 UV-I 125 W/m 14,3 C 15,9 C 3,1 km/h (1 Bft) 98,94 %
31.05.2018 07:00 18,0 C 23,9 C 82 % 1012,2 hPa 0,0 l/m 6,2 km/h (2 Bft) O-NO 1,00 h 0,076 mm 0,5 UV-I 264 W/m 14,9 C 17,8 C 8,9 km/h (2 Bft) 96,43 %
31.05.2018 08:00 19,8 C 23,9 C 77 % 1012,4 hPa 0,0 l/m 5,0 km/h (1 Bft) O 1,00 h 0,153 mm 1,0 UV-I 454 W/m 15,7 C 19,8 C 7,7 km/h (2 Bft) 97,98 %
31.05.2018 09:00 22,0 C 23,9 C 73 % 1012,5 hPa 0,0 l/m 3,6 km/h (1 Bft) N-NO 1,00 h 0,279 mm 1,7 UV-I 611 W/m 16,9 C 22,0 C 5,3 km/h (1 Bft) 98,03 %
31.05.2018 10:00 23,8 C 24,3 C 65 % 1012,5 hPa 0,0 l/m 3,1 km/h (1 Bft) W-SW 1,00 h 0,381 mm 2,6 UV-I 734 W/m 16,8 C 23,8 C 4,8 km/h (1 Bft) 99,16 %
31.05.2018 11:00 25,6 C 24,4 C 60 % 1012,3 hPa 0,0 l/m 4,0 km/h (1 Bft) O-SO 1,00 h 0,457 mm 3,4 UV-I 830 W/m 17,1 C 25,6 C 6,3 km/h (2 Bft) 96,72 %
31.05.2018 12:00 27,0 C 24,7 C 56 % 1011,9 hPa 0,0 l/m 5,4 km/h (1 Bft) NO 1,00 h 0,559 mm 3,8 UV-I 872 W/m 17,4 C 26,9 C 8,0 km/h (2 Bft) 98,16 %
31.05.2018 13:00 27,9 C 25,0 C 52 % 1011,3 hPa 0,0 l/m 5,4 km/h (1 Bft) N-NO 1,00 h 0,610 mm 3,8 UV-I 872 W/m 17,0 C 27,8 C 8,0 km/h (2 Bft) 97,82 %
31.05.2018 14:00 28,8 C 25,5 C 49 % 1011,0 hPa 0,0 l/m 5,9 km/h (2 Bft) NO 1,00 h 0,609 mm 3,4 UV-I 836 W/m 16,9 C 28,7 C 9,0 km/h (2 Bft) 98,21 %
31.05.2018 15:00 29,1 C 25,6 C 44 % 1010,8 hPa 0,0 l/m 6,0 km/h (2 Bft) O 0,72 h 0,610 mm 2,0 UV-I 517 W/m 15,6 C 29,1 C 9,1 km/h (2 Bft) 97,31 %
31.05.2018 16:00 28,3 C 25,6 C 47 % 1010,8 hPa 0,0 l/m 5,3 km/h (1 Bft) O 0,13 h 0,406 mm 1,1 UV-I 309 W/m 15,8 C 28,3 C 7,6 km/h (2 Bft) 99,36 %
31.05.2018 17:00 28,6 C 26,0 C 45 % 1010,4 hPa 0,0 l/m 5,9 km/h (2 Bft) SO 1,00 h 0,254 mm 0,9 UV-I 392 W/m 15,6 C 28,6 C 8,8 km/h (2 Bft) 97,20 %
31.05.2018 18:00 28,4 C 26,1 C 50 % 1010,4 hPa 0,0 l/m 8,8 km/h (2 Bft) S-SO 1,00 h 0,331 mm 0,6 UV-I 270 W/m 16,8 C 28,0 C 12,5 km/h (3 Bft) 97,47 %
31.05.2018 19:00 27,0 C 26,1 C 55 % 1010,4 hPa 0,0 l/m 5,4 km/h (1 Bft) SO 0,47 h 0,254 mm 0,0 UV-I 105 W/m 17,3 C 27,0 C 7,9 km/h (2 Bft) 98,06 %
31.05.2018 20:00 25,0 C 25,7 C 54 % 1010,4 hPa 0,0 l/m 5,6 km/h (1 Bft) SO 0,18 h 0,127 mm 0,0 UV-I 21 W/m 15,2 C 24,9 C 8,6 km/h (2 Bft) 99,22 %
31.05.2018 21:00 22,5 C 25,6 C 59 % 1010,8 hPa 0,0 l/m 3,1 km/h (1 Bft) SW 0,00 h 0,050 mm 0,0 UV-I 4 W/m 14,2 C 22,4 C 4,8 km/h (1 Bft) 97,64 %
31.05.2018 22:00 21,4 C 25,6 C 64 % 1011,3 hPa 0,0 l/m 5,9 km/h (2 Bft) O-NO 0,00 h 0,026 mm 0,0 UV-I 0 W/m 14,4 C 21,1 C 8,1 km/h (2 Bft) 97,72 %
31.05.2018 23:00 21,4 C 25,5 C 63 % 1011,7 hPa 0,0 l/m 6,2 km/h (2 Bft) SO 0,00 h 0,051 mm 0,0 UV-I 0 W/m 13,9 C 21,1 C 9,0 km/h (2 Bft) 98,17 %
01.06.2018 00:00 20,6 C 25,0 C 66 % 1011,8 hPa 0,0 l/m 3,2 km/h (1 Bft) SW 0,00 h 0,000 mm 0,0 UV-I 0 W/m 14,1 C 20,6 C 4,5 km/h (1 Bft) 99,02 %
01.06.2018 01:00 18,5 C 25,0 C 76 % 1011,8 hPa 0,0 l/m 3,9 km/h (1 Bft) SW 0,00 h 0,025 mm 0,0 UV-I 0 W/m 14,1 C 18,5 C 5,0 km/h (1 Bft) 96,98 %
01.06.2018 02:00 17,6 C 25,0 C 81 % 1011,7 hPa 0,0 l/m 3,4 km/h (1 Bft) SW 0,00 h 0,026 mm 0,0 UV-I 0 W/m 14,2 C 17,6 C 4,6 km/h (1 Bft) 97,31 %
01.06.2018 03:00 17,8 C 25,0 C 82 % 1011,7 hPa 0,0 l/m 6,3 km/h (2 Bft) SW 0,00 h 0,025 mm 0,0 UV-I 0 W/m 14,8 C 17,7 C 8,3 km/h (2 Bft) 97,88 %
01.06.2018 04:00 18,1 C 24,5 C 81 % 1012,4 hPa 0,0 l/m 8,4 km/h (2 Bft) W 0,00 h 0,026 mm 0,0 UV-I 4 W/m 14,8 C 17,2 C 11,8 km/h (2 Bft) 99,15 %
01.06.2018 05:00 17,9 C 24,4 C 82 % 1013,5 hPa 0,0 l/m 8,0 km/h (2 Bft) W-SW 0,40 h 0,025 mm 0,0 UV-I 27 W/m 14,9 C 17,2 C 11,2 km/h (2 Bft) 96,45 %
01.06.2018 06:00 18,8 C 24,4 C 78 % 1014,2 hPa 0,0 l/m 14,5 km/h (3 Bft) W-SW 0,63 h 0,025 mm 0,0 UV-I 109 W/m 14,9 C 16,0 C 20,4 km/h (4 Bft) 98,29 %
01.06.2018 07:00 19,6 C 24,4 C 75 % 1014,9 hPa 0,0 l/m 17,9 km/h (3 Bft) W 0,83 h 0,102 mm 0,5 UV-I 254 W/m 15,0 C 16,1 C 25,1 km/h (4 Bft) 97,45 %
01.06.2018 08:00 20,0 C 24,4 C 73 % 1015,4 hPa 0,0 l/m 18,0 km/h (3 Bft) W-SW 0,55 h 0,203 mm 0,8 UV-I 291 W/m 15,0 C 16,6 C 25,5 km/h (4 Bft) 98,23 %
01.06.2018 09:00 20,2 C 24,4 C 72 % 1015,9 hPa 0,0 l/m 17,2 km/h (3 Bft) W 0,00 h 0,229 mm 1,0 UV-I 252 W/m 14,9 C 17,0 C 23,9 km/h (4 Bft) 96,58 %
01.06.2018 10:00 21,0 C 24,4 C 69 % 1016,2 hPa 0,0 l/m 15,8 km/h (3 Bft) W-SW 0,38 h 0,203 mm 1,6 UV-I 426 W/m 15,1 C 18,4 C 21,9 km/h (4 Bft) 97,66 %
01.06.2018 11:00 21,4 C 24,4 C 67 % 1016,3 hPa 0,0 l/m 13,7 km/h (3 Bft) W-SW 0,13 h 0,330 mm 1,8 UV-I 397 W/m 15,1 C 19,3 C 19,7 km/h (3 Bft) 98,53 %
01.06.2018 12:00 22,3 C 24,4 C 65 % 1016,3 hPa 0,0 l/m 10,1 km/h (2 Bft) W 0,78 h 0,305 mm 3,1 UV-I 586 W/m 15,4 C 21,2 C 15,3 km/h (3 Bft) 98,26 %
01.06.2018 13:00 23,7 C 24,7 C 61 % 1015,9 hPa 0,0 l/m 7,1 km/h (2 Bft) W 0,87 h 0,406 mm 3,7 UV-I 822 W/m 15,7 C 23,3 C 11,5 km/h (2 Bft) 97,16 %
01.06.2018 14:00 24,4 C 25,0 C 59 % 1015,3 hPa 0,0 l/m 8,1 km/h (2 Bft) W-SW 0,72 h 0,559 mm 3,2 UV-I 728 W/m 15,8 C 23,8 C 12,7 km/h (3 Bft) 98,02 %
01.06.2018 15:00 24,7 C 25,3 C 58 % 1015,0 hPa 0,0 l/m 7,9 km/h (2 Bft) W-SW 0,60 h 0,483 mm 2,4 UV-I 614 W/m 15,8 C 24,2 C 11,9 km/h (2 Bft) 98,46 %
01.06.2018 16:00 24,8 C 25,6 C 57 % 1014,7 hPa 0,0 l/m 5,9 km/h (2 Bft) W 0,60 h 0,432 mm 1,6 UV-I 511 W/m 15,7 C 24,6 C 9,4 km/h (2 Bft) 98,58 %
01.06.2018 17:00 24,9 C 25,6 C 56 % 1014,3 hPa 0,0 l/m 6,0 km/h (2 Bft) W-NW 0,97 h 0,381 mm 1,1 UV-I 473 W/m 15,6 C 24,8 C 10,1 km/h (2 Bft) 96,24 %
01.06.2018 18:00 24,1 C 25,6 C 60 % 1014,6 hPa 0,0 l/m 4,9 km/h (1 Bft) N 0,87 h 0,330 mm 0,5 UV-I 261 W/m 15,8 C 24,0 C 8,4 km/h (2 Bft) 98,20 %
01.06.2018 19:00 23,3 C 25,6 C 62 % 1014,6 hPa 0,0 l/m 4,7 km/h (1 Bft) N 1,00 h 0,203 mm 0,0 UV-I 151 W/m 15,7 C 23,2 C 8,0 km/h (2 Bft) 99,30 %
01.06.2018 20:00 22,4 C 25,6 C 64 % 1014,9 hPa 0,0 l/m 1,7 km/h (1 Bft) W 0,73 h 0,127 mm 0,0 UV-I 47 W/m 15,3 C 22,4 C 3,3 km/h (1 Bft) 98,03 %
01.06.2018 21:00 20,7 C 25,6 C 71 % 1015,4 hPa 0,0 l/m 0,6 km/h (0 Bft) W-NW 0,00 h 0,051 mm 0,0 UV-I 5 W/m 15,1 C 20,7 C 1,8 km/h (1 Bft) 97,34 %
01.06.2018 22:00 19,1 C 25,1 C 77 % 1015,7 hPa 0,0 l/m 2,3 km/h (1 Bft) SW 0,00 h 0,000 mm 0,0 UV-I 0 W/m 15,0 C 19,1 C 3,2 km/h (1 Bft) 98,16 %
01.06.2018 23:00 18,7 C 25,0 C 79 % 1016,1 hPa 0,0 l/m 3,6 km/h (1 Bft) S-SW 0,00 h 0,025 mm 0,0 UV-I 0 W/m 15,0 C 18,7 C 4,8 km/h (1 Bft) 98,81 %
02.06.2018 00:00 18,9 C 25,0 C 79 % 1016,2 hPa 0,0 l/m 5,7 km/h (1 Bft) SW 0,00 h 0,000 mm 0,0 UV-I 0 W/m 15,2 C 18,8 C 7,7 km/h (2 Bft) 97,69 %
02.06.2018 01:00 19,2 C 25,0 C 79 % 1016,4 hPa 0,0 l/m 7,8 km/h (2 Bft) S-SW 0,00 h 0,025 mm 0,0 UV-I 0 W/m 15,5 C 18,6 C 11,3 km/h (2 Bft) 96,58 %
02.06.2018 02:00 18,4 C 24,9 C 77 % 1016,3 hPa 0,0 l/m 10,3 km/h (2 Bft) S 0,00 h 0,026 mm 0,0 UV-I 0 W/m 14,3 C 16,9 C 15,7 km/h (3 Bft) 97,85 %
02.06.2018 03:00 17,3 C 24,4 C 81 % 1016,1 hPa 0,0 l/m 9,4 km/h (2 Bft) SW 0,00 h 0,025 mm 0,0 UV-I 0 W/m 14,1 C 16,0 C 13,8 km/h (3 Bft) 98,72 %
02.06.2018 04:00 16,7 C 24,4 C 85 % 1015,8 hPa 0,0 l/m 7,3 km/h (2 Bft) SW 0,00 h 0,026 mm 0,0 UV-I 4 W/m 14,1 C 16,1 C 10,4 km/h (2 Bft) 97,14 %
02.06.2018 05:00 16,4 C 24,4 C 86 % 1016,1 hPa 0,0 l/m 2,9 km/h (1 Bft) SW 0,25 h 0,025 mm 0,0 UV-I 24 W/m 14,0 C 16,3 C 4,3 km/h (1 Bft) 96,74 %
02.06.2018 06:00 16,7 C 24,1 C 86 % 1016,6 hPa 0,0 l/m 5,3 km/h (1 Bft) SW 0,00 h 0,025 mm 0,0 UV-I 61 W/m 14,3 C 16,7 C 7,3 km/h (2 Bft) 97,58 %
02.06.2018 07:00 17,8 C 23,9 C 84 % 1017,0 hPa 0,0 l/m 5,4 km/h (1 Bft) W-SW 0,00 h 0,051 mm 0,0 UV-I 127 W/m 15,0 C 17,7 C 7,7 km/h (2 Bft) 99,19 %
02.06.2018 08:00 19,2 C 23,9 C 77 % 1017,3 hPa 0,0 l/m 10,0 km/h (2 Bft) W-SW 0,00 h 0,076 mm 0,6 UV-I 181 W/m 15,0 C 17,8 C 14,1 km/h (3 Bft) 97,03 %
02.06.2018 09:00 19,5 C 23,9 C 75 % 1017,5 hPa 0,0 l/m 9,8 km/h (2 Bft) W-SW 0,00 h 0,127 mm 0,8 UV-I 232 W/m 14,9 C 18,2 C 14,2 km/h (3 Bft) 97,45 %
02.06.2018 10:00 19,9 C 23,9 C 74 % 1017,6 hPa 0,0 l/m 7,1 km/h (2 Bft) W-SW 0,32 h 0,178 mm 1,3 UV-I 346 W/m 15,1 C 19,2 C 10,7 km/h (2 Bft) 97,97 %
02.06.2018 11:00 20,8 C 23,9 C 71 % 1017,4 hPa 0,0 l/m 6,8 km/h (2 Bft) W-SW 0,30 h 0,229 mm 1,6 UV-I 380 W/m 15,4 C 20,4 C 10,3 km/h (2 Bft) 99,34 %
02.06.2018 12:00 21,6 C 24,3 C 68 % 1017,4 hPa 0,0 l/m 6,9 km/h (2 Bft) W-SW 0,68 h 0,254 mm 2,6 UV-I 586 W/m 15,5 C 21,2 C 10,5 km/h (2 Bft) 97,08 %
02.06.2018 13:00 22,9 C 24,4 C 63 % 1016,9 hPa 0,0 l/m 4,9 km/h (1 Bft) W-SW 1,00 h 0,381 mm 3,7 UV-I 877 W/m 15,6 C 22,8 C 8,0 km/h (2 Bft) 97,61 %
02.06.2018 14:00 24,1 C 25,0 C 56 % 1016,0 hPa 0,0 l/m 6,9 km/h (2 Bft) W-SW 1,00 h 0,533 mm 3,5 UV-I 808 W/m 14,9 C 23,8 C 10,8 km/h (2 Bft) 97,92 %
02.06.2018 15:00 25,0 C 25,0 C 56 % 1015,2 hPa 0,0 l/m 7,1 km/h (2 Bft) W-SW 0,85 h 0,534 mm 3,6 UV-I 734 W/m 15,7 C 24,7 C 11,4 km/h (2 Bft) 99,39 %
02.06.2018 16:00 25,0 C 25,5 C 55 % 1014,9 hPa 0,0 l/m 6,7 km/h (2 Bft) N-NO 0,90 h 0,508 mm 2,6 UV-I 582 W/m 15,3 C 24,7 C 10,5 km/h (2 Bft) 96,50 %
02.06.2018 17:00 24,7 C 25,6 C 51 % 1014,6 hPa 0,0 l/m 4,6 km/h (1 Bft) W-NW 0,50 h 0,406 mm 1,3 UV-I 319 W/m 13,8 C 24,7 C 8,0 km/h (2 Bft) 97,58 %
02.06.2018 18:00 23,6 C 25,6 C 55 % 1014,3 hPa 0,0 l/m 3,5 km/h (1 Bft) W-SW 0,38 h 0,229 mm 0,5 UV-I 152 W/m 14,0 C 23,6 C 5,2 km/h (1 Bft) 97,66 %
02.06.2018 19:00 23,8 C 25,6 C 57 % 1014,5 hPa 0,0 l/m 7,6 km/h (2 Bft) W 0,92 h 0,127 mm 0,0 UV-I 132 W/m 14,9 C 23,3 C 11,2 km/h (2 Bft) 99,25 %
02.06.2018 20:00 22,3 C 25,0 C 64 % 1014,6 hPa 0,0 l/m 6,9 km/h (2 Bft) W-SW 0,43 h 0,127 mm 0,0 UV-I 31 W/m 15,0 C 22,0 C 10,0 km/h (2 Bft) 96,78 %
02.06.2018 21:00 20,3 C 25,0 C 73 % 1015,3 hPa 0,0 l/m 5,8 km/h (2 Bft) SW 0,00 h 0,050 mm 0,0 UV-I 6 W/m 15,3 C 20,2 C 8,2 km/h (2 Bft) 97,82 %
02.06.2018 22:00 18,9 C 25,0 C 81 % 1015,7 hPa 0,0 l/m 5,7 km/h (1 Bft) SW 0,00 h 0,026 mm 0,0 UV-I 0 W/m 15,4 C 18,8 C 7,4 km/h (2 Bft) 97,82 %
02.06.2018 23:00 18,1 C 25,0 C 84 % 1015,8 hPa 0,0 l/m 6,3 km/h (2 Bft) SW 0,00 h 0,025 mm 0,0 UV-I 0 W/m 15,3 C 17,9 C 8,6 km/h (2 Bft) 99,45 %
03.06.2018 00:00 17,9 C 24,7 C 85 % 1015,9 hPa 0,0 l/m 6,0 km/h (2 Bft) S-SW 0,00 h 0,000 mm 0,0 UV-I 0 W/m 15,4 C 17,7 C 8,1 km/h (2 Bft) 96,15 %
03.06.2018 01:00 17,2 C 24,4 C 87 % 1016,2 hPa 0,0 l/m 2,9 km/h (1 Bft) S 0,00 h 0,025 mm 0,0 UV-I 0 W/m 15,1 C 17,2 C 4,4 km/h (1 Bft) 98,32 %
03.06.2018 02:00 17,1 C 24,4 C 86 % 1016,1 hPa 0,0 l/m 4,5 km/h (1 Bft) S-SO 0,00 h 0,000 mm 0,0 UV-I 0 W/m 14,7 C 17,1 C 6,7 km/h (2 Bft) 97,89 %
03.06.2018 03:00 16,9 C 24,4 C 85 % 1015,9 hPa 0,0 l/m 3,5 km/h (1 Bft) S-SW 0,00 h 0,026 mm 0,0 UV-I 0 W/m 14,3 C 16,9 C 5,3 km/h (1 Bft) 98,96 %
03.06.2018 04:00 15,9 C 24,0 C 87 % 1015,7 hPa 0,0 l/m 3,9 km/h (1 Bft) S-SW 0,00 h 0,000 mm 0,0 UV-I 4 W/m 13,6 C 15,9 C 5,5 km/h (1 Bft) 95,47 %
03.06.2018 05:00 15,5 C 23,9 C 89 % 1015,8 hPa 0,0 l/m 3,9 km/h (1 Bft) S-SW 0,05 h 0,000 mm 0,0 UV-I 15 W/m 13,8 C 15,5 C 5,4 km/h (1 Bft) 98,56 %
03.06.2018 06:00 15,9 C 23,9 C 89 % 1016,2 hPa 0,0 l/m 2,5 km/h (1 Bft) SW 0,07 h 0,025 mm 0,0 UV-I 71 W/m 14,1 C 15,9 C 4,1 km/h (1 Bft) 97,78 %
03.06.2018 07:00 17,9 C 23,9 C 83 % 1016,6 hPa 0,0 l/m 5,6 km/h (1 Bft) SW 0,87 h 0,051 mm 0,7 UV-I 287 W/m 15,0 C 17,8 C 7,9 km/h (2 Bft) 98,67 %
03.06.2018 08:00 20,1 C 23,9 C 76 % 1016,5 hPa 0,0 l/m 4,2 km/h (1 Bft) SW 0,93 h 0,178 mm 1,4 UV-I 447 W/m 15,7 C 20,0 C 6,3 km/h (2 Bft) 96,00 %
03.06.2018 09:00 21,5 C 24,2 C 70 % 1016,4 hPa 0,0 l/m 4,3 km/h (1 Bft) W-SW 1,00 h 0,279 mm 2,5 UV-I 622 W/m 15,9 C 21,5 C 6,6 km/h (2 Bft) 98,91 %
03.06.2018 10:00 23,0 C 24,4 C 65 % 1016,2 hPa 0,0 l/m 3,8 km/h (1 Bft) W-NW 1,00 h 0,381 mm 3,8 UV-I 755 W/m 15,9 C 22,9 C 6,1 km/h (2 Bft) 97,69 %
03.06.2018 11:00 24,4 C 24,6 C 58 % 1016,0 hPa 0,0 l/m 4,6 km/h (1 Bft) N-NO 0,90 h 0,483 mm 4,7 UV-I 838 W/m 15,6 C 24,4 C 6,9 km/h (2 Bft) 98,21 %
03.06.2018 12:00 25,4 C 25,0 C 51 % 1015,4 hPa 0,0 l/m 5,3 km/h (1 Bft) W 0,92 h 0,533 mm 5,5 UV-I 882 W/m 14,5 C 25,3 C 8,4 km/h (2 Bft) 95,57 %
03.06.2018 13:00 26,3 C 25,4 C 43 % 1014,7 hPa 0,0 l/m 5,5 km/h (1 Bft) W 0,88 h 0,584 mm 5,4 UV-I 834 W/m 12,8 C 26,2 C 8,9 km/h (2 Bft) 99,01 %
03.06.2018 14:00 27,5 C 25,6 C 38 % 1014,1 hPa 0,0 l/m 7,9 km/h (2 Bft) W-SW 1,00 h 0,559 mm 5,3 UV-I 874 W/m 11,9 C 27,1 C 12,2 km/h (2 Bft) 97,14 %
03.06.2018 15:00 27,8 C 26,1 C 36 % 1013,5 hPa 0,0 l/m 6,4 km/h (2 Bft) NW 1,00 h 0,635 mm 4,1 UV-I 774 W/m 11,2 C 27,7 C 10,3 km/h (2 Bft) 97,70 %
03.06.2018 16:00 28,0 C 26,1 C 37 % 1013,0 hPa 0,0 l/m 6,9 km/h (2 Bft) NO 1,00 h 0,584 mm 2,8 UV-I 642 W/m 11,9 C 27,8 C 10,9 km/h (2 Bft) 97,54 %
03.06.2018 17:00 26,2 C 26,1 C 49 % 1012,7 hPa 0,0 l/m 12,0 km/h (2 Bft) N-NO 0,67 h 0,483 mm 1,4 UV-I 357 W/m 14,5 C 25,2 C 16,1 km/h (3 Bft) 98,79 %
03.06.2018 18:00 25,9 C 26,1 C 49 % 1012,3 hPa 0,0 l/m 10,2 km/h (2 Bft) N-NO 1,00 h 0,330 mm 0,7 UV-I 301 W/m 14,3 C 25,1 C 14,5 km/h (3 Bft) 98,54 %
03.06.2018 19:00 25,1 C 26,1 C 52 % 1011,9 hPa 0,0 l/m 6,9 km/h (2 Bft) O-NO 1,00 h 0,280 mm 0,0 UV-I 144 W/m 14,4 C 24,9 C 9,7 km/h (2 Bft) 96,43 %
03.06.2018 20:00 23,6 C 26,1 C 56 % 1011,8 hPa 0,0 l/m 3,8 km/h (1 Bft) O 0,77 h 0,152 mm 0,0 UV-I 38 W/m 14,2 C 23,6 C 5,6 km/h (1 Bft) 98,51 %
03.06.2018 21:00 21,4 C 26,1 C 61 % 1012,0 hPa 0,0 l/m 2,1 km/h (1 Bft) O 0,00 h 0,051 mm 0,0 UV-I 6 W/m 13,6 C 21,4 C 3,4 km/h (1 Bft) 98,29 %
03.06.2018 22:00 20,4 C 25,6 C 64 % 1012,3 hPa 0,0 l/m 1,6 km/h (1 Bft) O 0,00 h 0,025 mm 0,0 UV-I 0 W/m 13,4 C 20,4 C 2,6 km/h (1 Bft) 97,47 %
03.06.2018 23:00 19,0 C 25,6 C 69 % 1012,2 hPa 0,0 l/m 2,9 km/h (1 Bft) O 0,00 h 0,026 mm 0,0 UV-I 0 W/m 13,1 C 19,0 C 4,3 km/h (1 Bft) 96,26 %
Min-Datum _ 28.05.18 28.05.18 29.05.18 29.05.18 - 28.05.18 - - - - - 03.06.18 28.05.18 28.05.18 29.05.18
_ Min-Zeit 04:52 03:23 15:00 17:41 - 00:06 - - - - - 16:19 04:52 00:06 23:40
Minimum _ 13,7 C 22,2 C 30 % 1008,6 hPa - 0,0 km/h (0 Bft) - - - - - 9,4 C 13,7 C 0,0 km/h (0 Bft) 74,56 %
Max-Datum _ 29.05.18 31.05.18 28.05.18 02.06.18 28.05.18 28.05.18 - 01.06.18 29.05.18 30.05.18 30.05.18 31.05.18 29.05.18 28.05.18 28.05.18
_ Max-Zeit 15:47 17:09 04:34 10:03 00:00 18:45 - 12:10 13:00 13:14 13:14 13:10 15:47 18:39 00:03
Maximum _ 31,3 C 26,1 C 95 % 1017,7 hPa 0,0 l/m 29,4 km/h
O-NO (5 Bft)
- 0,07 h 0,686 mm 6,2 UV-I 1210 W/m 18,9 C 31,3 C 43,5 km/h
O-NO (6 Bft)
100,00 %
Durchschnitt _ 22,0 C 24,5 C 67 % 1013,5 hPa #0,0 l/m 7,0 km/h (2 Bft) O #80:27 h #36,474 mm 2,4 UV-I 385 W/m 15,1 C 21,5 C 10,1 km/h (2 Bft) 97,85 %